Main page
METAR-TAF:

METAR-TAF

Airports :

Harlan Municipal Airport

Harlan, Iowa, United States

latitude: 41-35-04N, longitude: 095-20-23W, elevation: 1230 ft

Current weather observation

The report was made 24 minutes ago, at 06:35 UTC
Wind 18 mph from the Southeast with gusts up to 29 mph
Temperature 72°F
Humidity 73%
Pressure 29.59 in. Hg
Visibility: 10 miles
Broken clouds at a height of 3400 ft
Broken clouds at a height of 5000 ft
Overcast at a height of 6000 ft

METAR: KHNR 240635Z AUTO 14016G25KT 10SM BKN034 BKN050 OVC060 22/17 A2959 RMK A01

Time: 01:59 (06:59 UTC)


TAF: missing

Weather observations and forecasts of more than 4000 airports (METAR and TAF reports).

The available stations are represented by yellow and red dots on the map.

Hover mouse over dot to see the name of the station.

Then click to see weather observations and forecasts.

To change the map : click on the green buttons with a black cross to zoom in, on the green button with a dash to zoom out, or on the green arrows for adjacent maps.


METAR-TAF: